Las horas y fechas están en horario UTC
Sumar 1 hora en el horario de Invierno y 2 horas en el de Verano

Informes METAR cercanos

 

LEZL - Sevilla (civ/Mil, Spain
Distance from station: NNE 24km
Actualización: 16/10/2019 19:30
Despejado
Despejado
 Viento del SO
Viento: SO 6 km/h
Temperatura: 23°C
Rocío: 1°C
Humedad: 23%
Barómetro: 1018 hPa
Resumen: Despejado
Visibility: greater than 10 km
2019/10/16 17:30 LEZL 161730Z 22003KT CAVOK 23/01 Q1018 NOSIG
LEMO - Moron (sp-Usafb), Spain
Distance from station: E 38km
Actualización: 16/10/2019 20:00
Despejado
Despejado
 Viento del O
Viento: O 9 km/h
Temperatura: 20°C
Rocío: 1°C
Humedad: 28%
Barómetro: 1018 hPa
Resumen: Despejado
Visibility: greater than 10 km
2019/10/16 18:00 LEMO 161800Z 28005KT CAVOK 20/01 Q1018 NOSIG
LEJR - Jerez (civ/Mil), Spain
Distance from station: S 53km
Actualización: 16/10/2019 20:00
Despejado
Despejado
 Viento del ONO
Viento: ONO 15 km/h
Temperatura: 19°C
Rocío: 6°C
Humedad: 43%
Barómetro: 1018 hPa
Resumen: Despejado
Visibility: greater than 10 km
2019/10/16 18:00 LEJR 161800Z 29008KT 260V340 CAVOK 19/06 Q1018
 
LERT - Rota Naval Stati, Spain
Distance from station: SSO 71km
Actualización: 16/10/2019 19:00
Despejado
Despejado
 Viento del O
Viento: O 20 km/h
Temperatura: 20°C
Rocío: 10°C
Humedad: 53%
Barómetro: 1018 hPa
Resumen: Despejado
Visibility: greater than 10 km
2019/10/16 17:00 LERT 161700Z 28011KT 260V320 CAVOK 20/10 Q1018 NOSIG
LEBA - Cordoba Airport, Spain
Distance from station: ENE 128km
Actualización: 16/10/2019 19:30
Despejado
Despejado
 Viento del O
Viento: O 9 km/h
Temperatura: 22°C
Rocío: 2°C
Humedad: 27%
Barómetro: 1017 hPa
Resumen: Despejado
Visibility: greater than 10 km
2019/10/16 17:30 LEBA 161730Z 26005KT CAVOK 22/02 Q1017
LXGB - Gibraltar (civ/M, Gibraltar
Distance from station: SSE 137km
Actualización: 16/10/2019 19:50
Despejado
Despejado
 Viento del S
Viento: S 15 km/h
Temperatura: 20°C
Rocío: 7°C
Humedad: 43%
Barómetro: 1018 hPa
Resumen: Despejado
Visibility: greater than 10 km
2019/10/16 17:50 LXGB 161750Z 19008KT CAVOK 20/07 Q1018 NOSIG RMK BLU BLU
 
LEMG - Malaga (civ/Mil), Spain
Distance from station: ESE 150km
Actualización: 16/10/2019 19:30
Despejado
Despejado
 Viento del ENE
Viento: ENE 13 km/h
Temperatura: 20°C
Rocío: 14°C
Humedad: 69%
Barómetro: 1018 hPa
Resumen: Despejado
Visibility: greater than 10 km
2019/10/16 17:30 LEMG 161730Z 07007KT 050V110 CAVOK 20/14 Q1018 NOSIG
GMTT - Tangier/Boukhalf, Morocco
Distance from station: S 169km
Actualización: 16/10/2019 19:30
Despejado
Despejado
 Viento del NO
Viento: NO 15 km/h
Temperatura: 20°C
Rocío: 12°C
Humedad: 60%
Barómetro: 1018 hPa
Resumen: Despejado
Visibility: greater than 10 km
2019/10/16 17:30 GMTT 161730Z 31008KT CAVOK 20/12 Q1018 NOSIG
LPFR - Faro, Portugal
Distance from station: O 172km
Actualización: 16/10/2019 19:30
Few Clouds
Few Clouds
 Viento del O
Viento: O 20 km/h
Temperatura: 19°C
Rocío: 13°C
Humedad: 68%
Barómetro: 1019 hPa
Clouds: Few Clouds
Visibility: 10 km
Cloud details: Few Clouds 549 m
2019/10/16 17:30 LPFR 161730Z 26011KT 9999 FEW018 19/13 Q1019
 
LPBJ - Beja (por/Ger-Af, Portugal
Distance from station: ONO 192km
Actualización: 16/10/2019 19:00
Few Clouds
Few Clouds
 Viento del O
Viento: O 20 km/h
Temperatura: 21°C
Rocío: 9°C
Humedad: 46%
Barómetro: 1019 hPa
Clouds: Few Clouds
Visibility: 10 km
Cloud details: Few Clouds 1280 m
2019/10/16 17:00 LPBJ 161700Z 27011KT 9999 FEW042 21/09 Q1019
LEBZ - Talavera Ab/Bada, Spain
Distance from station: NNO 194km
Actualización: 16/10/2019 19:00
Despejado
Despejado
 Viento del OSO
Viento: OSO 11 km/h
Temperatura: 21°C
Rocío: 8°C
Humedad: 43%
Barómetro: 1019 hPa
Resumen: Despejado
Visibility: greater than 10 km
2019/10/16 17:00 LEBZ 161700Z 24006KT CAVOK 21/08 Q1019
LEMD - Madrid/Barajas, Spain
Distance from station: NE 415km
Actualización: 16/10/2019 19:30
Despejado
Despejado
 Viento del SO
Viento: SO 15 km/h
Temperatura: 18°C
Rocío: 0°C
Humedad: 30%
Barómetro: 1019 hPa
Resumen: Despejado
Visibility: greater than 10 km
2019/10/16 17:30 LEMD 161730Z 22008KT CAVOK 18/00 Q1019 NOSIG